createdAt,value
2022-10-04T04:32:28.495Z,5.50
2022-10-04T04:37:31.533Z,4.10
2022-10-04T04:42:36.025Z,3.50
2022-10-04T04:47:47.119Z,3.47
2022-10-04T04:52:53.830Z,3.33
2022-10-04T04:57:59.137Z,3.73
2022-10-04T05:03:03.499Z,3.37
2022-10-04T05:08:19.551Z,4.27
2022-10-04T05:13:23.153Z,5.63
2022-10-04T05:18:34.179Z,7.67
2022-10-04T05:23:38.355Z,8.73
2022-10-04T05:28:41.975Z,8.10
2022-10-04T05:33:50.360Z,8.50
2022-10-04T05:39:05.044Z,6.40
2022-10-04T05:44:31.330Z,9.20
2022-10-04T05:49:46.654Z,11.07
2022-10-04T05:55:12.308Z,8.43
2022-10-04T06:00:17.031Z,9.10
2022-10-04T06:05:46.559Z,11.10
2022-10-04T06:11:09.726Z,17.37
2022-10-04T06:16:15.804Z,11.63
2022-10-04T06:21:25.294Z,11.73
2022-10-04T06:27:02.871Z,11.70
2022-10-04T06:32:14.671Z,12.77
2022-10-04T06:37:43.463Z,10.00
2022-10-04T06:43:15.684Z,10.73
2022-10-04T06:48:29.160Z,7.33
2022-10-04T06:53:49.968Z,8.03
2022-10-04T06:59:24.673Z,7.73
2022-10-04T07:05:07.520Z,5.93
2022-10-04T07:10:39.422Z,4.40
2022-10-04T07:16:02.437Z,5.03
2022-10-04T07:21:15.676Z,6.43
2022-10-04T07:26:28.642Z,5.87
2022-10-04T07:31:34.645Z,6.50
2022-10-04T07:36:50.349Z,5.40
2022-10-04T07:41:58.954Z,4.83
2022-10-04T07:47:25.812Z,6.00
2022-10-04T07:52:52.814Z,4.73
2022-10-04T07:57:58.829Z,4.50
2022-10-04T08:03:50.772Z,5.03
2022-10-04T08:09:22.557Z,5.33
2022-10-04T08:14:52.492Z,3.97
2022-10-04T08:20:22.535Z,4.00
2022-10-04T08:25:36.274Z,3.83
2022-10-04T08:30:52.474Z,4.37
2022-10-04T08:36:26.207Z,3.30
2022-10-04T08:42:04.857Z,3.30
2022-10-04T08:47:29.983Z,3.47
2022-10-04T08:52:44.698Z,3.33
2022-10-04T08:58:09.187Z,5.90
2022-10-04T09:03:45.587Z,4.60
2022-10-04T09:09:26.021Z,2.30
2022-10-04T09:14:48.502Z,2.53
2022-10-04T09:20:33.864Z,2.73
2022-10-04T09:25:41.891Z,3.33
2022-10-04T09:30:59.572Z,3.30
2022-10-04T09:36:15.680Z,2.57
2022-10-04T09:41:42.757Z,2.10
2022-10-04T09:47:07.338Z,2.27
2022-10-04T09:52:36.573Z,2.03
2022-10-04T09:58:05.770Z,2.50
2022-10-04T10:03:20.437Z,3.23
2022-10-04T10:08:48.241Z,2.00
2022-10-04T10:13:58.315Z,2.80
2022-10-04T10:19:14.876Z,2.43
2022-10-04T10:24:47.132Z,3.30
2022-10-04T10:30:05.385Z,1.77
2022-10-04T10:35:29.257Z,2.20
2022-10-04T10:40:35.035Z,1.50
2022-10-04T10:46:07.246Z,1.80
2022-10-04T10:51:55.911Z,1.87
2022-10-04T10:57:28.728Z,2.10
2022-10-04T11:03:34.677Z,2.53
2022-10-04T11:09:14.752Z,1.87
2022-10-04T11:14:39.080Z,2.67
2022-10-04T11:19:46.571Z,2.33
2022-10-04T11:25:07.770Z,1.93
2022-10-04T11:30:25.195Z,1.60
2022-10-04T11:35:36.972Z,1.97
2022-10-04T11:40:58.821Z,2.00
2022-10-04T11:46:11.178Z,2.13
2022-10-04T11:51:40.937Z,1.73
2022-10-04T11:57:25.748Z,1.47
2022-10-04T12:02:49.144Z,1.90
2022-10-04T12:07:55.279Z,1.47
2022-10-04T12:13:26.015Z,1.50
2022-10-04T12:18:36.029Z,1.23
2022-10-04T12:24:07.114Z,1.43
2022-10-04T12:29:42.786Z,1.20
2022-10-04T12:34:47.055Z,1.67
2022-10-04T12:40:10.634Z,1.70
2022-10-04T12:45:32.390Z,1.87
2022-10-04T12:50:50.942Z,3.07
2022-10-04T12:56:21.992Z,2.50
2022-10-04T13:01:52.914Z,2.93
2022-10-04T13:07:20.492Z,1.57
2022-10-04T13:13:20.232Z,3.47
2022-10-04T13:18:37.538Z,2.00
2022-10-04T13:24:04.796Z,1.77
2022-10-04T13:29:16.182Z,1.47
2022-10-04T13:34:25.049Z,2.90
2022-10-04T13:39:52.406Z,1.73
2022-10-04T13:45:18.118Z,1.63
2022-10-04T13:50:53.271Z,1.80
2022-10-04T13:56:47.634Z,1.80
2022-10-04T14:02:17.252Z,2.00
2022-10-04T14:08:06.739Z,2.00
2022-10-04T14:13:32.883Z,1.73
2022-10-04T14:19:15.018Z,1.43
2022-10-04T14:24:38.686Z,1.50
2022-10-04T14:30:18.755Z,1.27
2022-10-04T14:35:34.634Z,1.40
2022-10-04T14:41:15.364Z,1.30
2022-10-04T14:46:43.681Z,1.53
2022-10-04T14:51:50.144Z,1.40
2022-10-04T14:57:11.897Z,1.57
2022-10-04T15:03:05.623Z,1.77
2022-10-04T15:08:39.126Z,1.70
2022-10-04T15:13:56.777Z,1.77
2022-10-04T15:19:10.149Z,1.43
2022-10-04T15:24:18.090Z,1.70
2022-10-04T15:29:58.065Z,1.90
2022-10-04T15:35:19.209Z,2.30
2022-10-04T15:40:52.484Z,2.47
2022-10-04T15:46:27.286Z,2.80
2022-10-04T15:51:45.642Z,2.23
2022-10-04T15:57:05.007Z,2.33
2022-10-04T16:02:38.345Z,3.67
2022-10-04T16:07:53.057Z,3.13
2022-10-04T16:13:17.143Z,3.30
2022-10-04T16:18:36.978Z,3.30
2022-10-04T16:23:44.232Z,2.87
2022-10-04T16:29:14.808Z,2.87
2022-10-04T16:35:05.499Z,3.40
2022-10-04T16:40:17.154Z,3.90
2022-10-04T16:45:35.278Z,4.00
2022-10-04T16:51:00.709Z,4.17
2022-10-04T16:56:15.361Z,4.33
2022-10-04T17:01:54.923Z,4.73
2022-10-04T17:07:00.517Z,4.87
2022-10-04T17:12:27.337Z,4.97
2022-10-04T17:17:43.758Z,5.77
2022-10-04T17:23:03.510Z,5.07
2022-10-04T17:28:31.127Z,5.07
2022-10-04T17:33:57.933Z,5.30
2022-10-04T17:39:29.716Z,5.83
2022-10-04T17:44:42.006Z,8.37
2022-10-04T17:50:36.566Z,8.93
2022-10-04T17:55:49.701Z,10.20
2022-10-04T18:01:08.042Z,9.57
2022-10-04T18:06:55.845Z,9.43
2022-10-04T18:12:22.826Z,9.43
2022-10-04T18:17:37.245Z,8.67
2022-10-04T18:22:51.410Z,8.77
2022-10-04T18:28:00.090Z,9.40
2022-10-04T18:33:05.317Z,8.13
2022-10-04T18:38:18.501Z,8.77
2022-10-04T18:43:32.404Z,8.80
2022-10-04T18:48:55.838Z,8.40
2022-10-04T18:54:30.870Z,10.47
2022-10-04T19:00:28.137Z,11.47
2022-10-04T19:05:36.786Z,9.90
2022-10-04T19:10:51.509Z,11.03
2022-10-04T19:16:33.576Z,10.30
2022-10-04T19:21:42.267Z,10.00
2022-10-04T19:26:48.286Z,9.63
2022-10-04T19:31:56.502Z,9.33
2022-10-04T19:37:07.186Z,9.30
2022-10-04T19:42:17.377Z,8.87
2022-10-04T19:47:36.552Z,8.60
2022-10-04T19:53:20.473Z,9.93
2022-10-04T19:58:47.137Z,10.37
2022-10-04T20:04:11.150Z,9.87
2022-10-04T20:09:54.433Z,9.67
2022-10-04T20:15:27.456Z,8.10
2022-10-04T20:20:39.632Z,8.67
2022-10-04T20:25:45.709Z,8.57
2022-10-04T20:30:53.524Z,8.87
2022-10-04T20:36:01.344Z,8.53
2022-10-04T20:41:04.100Z,9.20
2022-10-04T20:46:25.947Z,8.87
2022-10-04T20:51:30.277Z,9.03
2022-10-04T20:56:34.056Z,10.17
2022-10-04T21:01:37.095Z,9.97
2022-10-04T21:06:52.992Z,10.33
2022-10-04T21:11:56.985Z,10.87
2022-10-04T21:17:31.171Z,10.00
2022-10-04T21:22:35.037Z,11.33
2022-10-04T21:27:39.947Z,11.03
2022-10-04T21:32:42.946Z,10.80
2022-10-04T21:37:46.036Z,9.93
2022-10-04T21:42:48.743Z,11.30
2022-10-04T21:47:51.435Z,10.80
2022-10-04T21:52:54.248Z,10.27
2022-10-04T21:57:56.973Z,8.70
2022-10-04T22:02:59.834Z,8.37
2022-10-04T22:08:02.622Z,9.27
2022-10-04T22:13:05.290Z,9.53
2022-10-04T22:18:08.135Z,9.70
2022-10-04T22:23:25.404Z,9.93
2022-10-04T22:28:30.033Z,9.50
2022-10-04T22:33:35.558Z,11.17
2022-10-04T22:38:38.368Z,10.33
2022-10-04T22:43:41.344Z,11.70
2022-10-04T22:48:49.171Z,12.50
2022-10-04T22:53:51.891Z,13.33
2022-10-04T22:58:54.839Z,14.10
2022-10-04T23:03:58.687Z,14.50
2022-10-04T23:09:01.413Z,17.53
2022-10-04T23:14:04.235Z,19.50
2022-10-04T23:19:20.828Z,18.93
2022-10-04T23:24:24.006Z,20.67
2022-10-04T23:29:33.948Z,19.63
